Terminal Aerodrome Forecast
Issued by NWS Los Angeles, CA

Home | Current Version | Previous Version | Text Only | Print | Product List | Glossary On
Versions: 1 2 3 4 5 6 7 8 9 10 11 12 13 14 15 16 17 18 19 20 21 22 23 24
000
FTUS46 KLOX 222336
TAFSMX
TAF
KSMX 222336Z 2300/2324 30015KT P6SM SCT030
     FM230300 30009KT P6SM BKN025
     FM230900 30005KT 5SM BR OVC012
     FM231500 VRB03KT P6SM BKN020
     FM231800 31009KT P6SM SCT030
     FM232100 30015G22KT P6SM SCT030=

USA.gov is the U.S. government's official web portal to all federal, state and local government web resources and services.